Aviation Digital Data Service (ADDS)

Output produced by METARs form (1250 UTC 20 September 2017)
found at http://aviationweather.gov/adds/metars/
 
KCAR 201120Z 2012/2112 00000KT 1/4SM FG BKN002 
     FM201300 00000KT 3SM BR BKN002 
     FM201600 04007KT P6SM BKN008 
     FM201700 03007KT P6SM BKN013 
     FM202000 03008KT P6SM SCT035